createdAt,value
2019-03-19T00:01:45.792Z,89.57
2019-03-19T00:04:13.833Z,85.40
2019-03-19T00:06:41.797Z,75.23
2019-03-19T00:09:09.773Z,74.83
2019-03-19T00:11:38.069Z,78.00
2019-03-19T00:14:05.981Z,77.07
2019-03-19T00:16:33.892Z,72.97
2019-03-19T00:19:01.840Z,74.57
2019-03-19T00:21:29.829Z,76.00
2019-03-19T00:23:57.732Z,74.13
2019-03-19T00:26:25.784Z,73.00
2019-03-19T00:28:53.672Z,73.70
2019-03-19T00:31:21.744Z,73.17
2019-03-19T00:33:49.787Z,69.57
2019-03-19T00:36:17.789Z,71.03
2019-03-19T00:38:45.789Z,72.27
2019-03-19T00:41:13.790Z,71.07
2019-03-19T00:43:41.779Z,72.07
2019-03-19T00:46:09.874Z,71.40
2019-03-19T00:48:37.925Z,70.57
2019-03-19T00:51:05.974Z,69.77
2019-03-19T00:53:33.979Z,68.50
2019-03-19T00:56:02.003Z,68.67
2019-03-19T00:58:30.046Z,69.73
2019-03-19T01:00:58.051Z,69.67
2019-03-19T01:03:26.033Z,71.70
2019-03-19T01:05:54.014Z,74.40
2019-03-19T01:08:22.992Z,72.10
2019-03-19T01:10:50.984Z,71.70
2019-03-19T01:13:19.027Z,73.83
2019-03-19T01:15:47.028Z,69.87
2019-03-19T01:18:14.919Z,70.80
2019-03-19T01:20:42.900Z,70.40
2019-03-19T01:23:10.959Z,76.80
2019-03-19T01:25:39.649Z,69.30
2019-03-19T01:28:07.761Z,68.67
2019-03-19T01:30:35.752Z,68.47
2019-03-19T01:33:03.722Z,69.00
2019-03-19T01:35:31.802Z,69.90
2019-03-19T01:37:59.840Z,69.33
2019-03-19T01:40:27.949Z,69.73
2019-03-19T01:42:55.978Z,71.87
2019-03-19T01:45:23.977Z,75.30
2019-03-19T01:47:52.037Z,73.50
2019-03-19T01:50:20.152Z,72.40
2019-03-19T01:52:48.185Z,71.20
2019-03-19T01:55:16.291Z,69.27
2019-03-19T01:57:44.354Z,70.50
2019-03-19T02:00:12.419Z,68.30
2019-03-19T02:02:40.442Z,70.57
2019-03-19T02:05:08.400Z,72.87
2019-03-19T02:07:36.296Z,70.40
2019-03-19T02:10:04.768Z,67.90
2019-03-19T02:12:32.739Z,70.50
2019-03-19T02:15:00.750Z,67.90
2019-03-19T02:17:28.802Z,72.30
2019-03-19T02:19:56.805Z,70.23
2019-03-19T02:22:24.721Z,69.40
2019-03-19T02:24:52.709Z,67.87
2019-03-19T02:27:20.794Z,68.57
2019-03-19T02:29:48.822Z,69.00
2019-03-19T02:32:16.826Z,67.20
2019-03-19T02:34:44.869Z,67.50
2019-03-19T02:37:12.907Z,69.27
2019-03-19T02:39:41.230Z,67.17
2019-03-19T02:42:09.199Z,67.97
2019-03-19T02:44:37.162Z,71.07
2019-03-19T02:47:05.174Z,71.70
2019-03-19T02:49:33.200Z,74.33
2019-03-19T02:52:01.279Z,74.20
2019-03-19T02:54:29.276Z,72.80
2019-03-19T02:56:57.345Z,69.13
2019-03-19T02:59:25.421Z,71.27
2019-03-19T03:01:53.477Z,70.00
2019-03-19T03:04:21.534Z,69.40
2019-03-19T03:06:49.543Z,69.27
2019-03-19T03:09:17.553Z,68.50
2019-03-19T03:11:45.550Z,69.67
2019-03-19T03:14:13.623Z,69.87
2019-03-19T03:16:41.791Z,71.67
2019-03-19T03:19:09.840Z,70.10
2019-03-19T03:21:37.866Z,71.03
2019-03-19T03:24:05.893Z,70.20
2019-03-19T03:26:46.863Z,69.57
2019-03-19T03:29:03.601Z,68.00
2019-03-19T03:31:31.666Z,71.10
2019-03-19T03:34:00.658Z,68.80
2019-03-19T03:36:28.705Z,72.60
2019-03-19T03:38:56.696Z,69.87
2019-03-19T03:41:24.751Z,87.53
2019-03-19T03:43:52.741Z,69.43
2019-03-19T03:46:20.817Z,71.50
2019-03-19T03:48:48.870Z,72.27
2019-03-19T03:51:16.990Z,70.10
2019-03-19T03:53:45.018Z,69.90
2019-03-19T03:56:14.023Z,71.17
2019-03-19T03:58:42.103Z,69.03
2019-03-19T04:01:10.165Z,69.13
2019-03-19T04:03:38.235Z,71.47
2019-03-19T04:06:06.297Z,68.77
2019-03-19T04:08:34.404Z,68.63
2019-03-19T04:11:02.425Z,70.07
2019-03-19T04:13:30.822Z,70.60
2019-03-19T04:15:58.881Z,71.00
2019-03-19T04:18:26.889Z,70.43
2019-03-19T04:20:54.925Z,69.17
2019-03-19T04:23:22.897Z,70.63
2019-03-19T04:25:50.860Z,70.40
2019-03-19T04:28:18.938Z,70.00
2019-03-19T04:30:47.013Z,69.50
2019-03-19T04:33:15.078Z,70.27
2019-03-19T04:35:43.562Z,67.57
2019-03-19T04:38:11.629Z,70.17
2019-03-19T04:40:39.580Z,68.00
2019-03-19T04:43:07.584Z,69.87
2019-03-19T04:45:35.526Z,68.67
2019-03-19T04:48:03.786Z,67.10
2019-03-19T04:50:31.978Z,67.20
2019-03-19T04:52:59.975Z,67.70
2019-03-19T04:55:28.026Z,71.23
2019-03-19T04:57:56.314Z,68.80
2019-03-19T05:00:24.387Z,71.37
2019-03-19T05:02:52.437Z,68.47
2019-03-19T05:05:20.403Z,66.47
2019-03-19T05:07:48.403Z,69.33
2019-03-19T05:10:16.436Z,68.47
2019-03-19T05:12:44.450Z,66.57
2019-03-19T05:15:12.595Z,72.47
2019-03-19T05:17:40.569Z,66.30
2019-03-19T05:20:08.910Z,66.83
2019-03-19T05:22:36.920Z,67.07
2019-03-19T05:25:05.153Z,71.80
2019-03-19T05:27:37.252Z,69.30
2019-03-19T05:30:02.760Z,68.70
2019-03-19T05:32:31.251Z,71.77
2019-03-19T05:34:59.221Z,72.10
2019-03-19T05:37:27.287Z,68.60
2019-03-19T05:39:55.269Z,70.60
2019-03-19T05:42:23.348Z,73.90
2019-03-19T05:44:51.385Z,70.47
2019-03-19T05:47:19.374Z,70.00
2019-03-19T05:49:47.454Z,75.37
2019-03-19T05:52:15.359Z,72.33
2019-03-19T05:54:43.384Z,68.93
2019-03-19T05:57:11.471Z,71.40
2019-03-19T05:59:40.113Z,72.30
2019-03-19T06:02:08.101Z,76.20
2019-03-19T06:04:36.082Z,73.37
2019-03-19T06:07:04.277Z,70.90
2019-03-19T06:09:32.337Z,73.40
2019-03-19T06:12:00.390Z,71.40
2019-03-19T06:14:28.373Z,79.30
2019-03-19T06:16:56.345Z,70.20
2019-03-19T06:19:24.330Z,69.97
2019-03-19T06:21:52.422Z,72.77
2019-03-19T06:24:20.522Z,79.77
2019-03-19T06:26:48.519Z,78.33
2019-03-19T06:29:16.591Z,77.63
2019-03-19T06:31:44.658Z,72.07
2019-03-19T06:34:12.645Z,73.57
2019-03-19T06:36:40.745Z,73.20
2019-03-19T06:39:08.743Z,71.80
2019-03-19T06:41:37.227Z,72.87
2019-03-19T06:44:05.221Z,73.33
2019-03-19T06:46:33.293Z,69.00
2019-03-19T06:49:01.385Z,70.57
2019-03-19T06:51:29.445Z,70.60
2019-03-19T06:53:57.519Z,69.30
2019-03-19T06:56:25.564Z,73.30
2019-03-19T06:58:53.548Z,72.07
2019-03-19T07:01:21.595Z,73.67
2019-03-19T07:03:49.628Z,77.07
2019-03-19T07:06:17.647Z,78.40
2019-03-19T07:08:45.630Z,75.27
2019-03-19T07:11:13.896Z,73.50
2019-03-19T07:13:42.309Z,79.23
2019-03-19T07:16:10.234Z,75.10
2019-03-19T07:18:38.285Z,75.00
2019-03-19T07:21:06.296Z,78.00
2019-03-19T07:23:34.374Z,74.03
2019-03-19T07:26:02.425Z,76.03
2019-03-19T07:28:30.445Z,75.90
2019-03-19T07:30:58.486Z,77.10
2019-03-19T07:33:26.551Z,79.00
2019-03-19T07:35:54.539Z,76.37
2019-03-19T07:38:22.649Z,80.23
2019-03-19T07:40:50.541Z,76.10
2019-03-19T07:43:18.600Z,75.73
2019-03-19T07:45:46.613Z,75.97
2019-03-19T07:48:14.666Z,74.80
2019-03-19T07:50:42.779Z,77.60
2019-03-19T07:53:10.859Z,79.43
2019-03-19T07:55:38.907Z,78.23
2019-03-19T07:58:06.948Z,75.13
2019-03-19T08:00:35.233Z,81.17
2019-03-19T08:03:03.327Z,80.20
2019-03-19T08:05:33.448Z,75.57
2019-03-19T08:08:01.085Z,86.40
2019-03-19T08:10:29.149Z,79.37
2019-03-19T08:12:57.144Z,79.20
2019-03-19T08:15:25.218Z,80.63
2019-03-19T08:17:53.264Z,78.10
2019-03-19T08:20:21.303Z,75.30
2019-03-19T08:22:49.315Z,85.10
2019-03-19T08:25:17.405Z,78.00
2019-03-19T08:27:45.445Z,78.37
2019-03-19T08:30:14.493Z,81.20
2019-03-19T08:32:42.410Z,84.53
2019-03-19T08:35:10.409Z,87.57
2019-03-19T08:37:38.441Z,81.57
2019-03-19T08:40:07.062Z,81.17
2019-03-19T08:42:35.134Z,80.27
2019-03-19T08:45:03.182Z,75.77
2019-03-19T08:47:31.270Z,75.60
2019-03-19T08:49:59.317Z,75.67
2019-03-19T08:52:27.294Z,76.90
2019-03-19T08:54:55.416Z,79.10
2019-03-19T08:57:23.316Z,77.10
2019-03-19T08:59:51.306Z,80.97
2019-03-19T09:02:19.353Z,75.43
2019-03-19T09:04:47.359Z,78.83
2019-03-19T09:07:15.314Z,70.90
2019-03-19T09:09:43.404Z,70.43
2019-03-19T09:12:11.432Z,77.57
2019-03-19T09:14:39.830Z,72.73
2019-03-19T09:17:07.894Z,71.83
2019-03-19T09:19:35.880Z,72.60
2019-03-19T09:22:03.886Z,73.27
2019-03-19T09:24:31.947Z,75.30
2019-03-19T09:26:59.995Z,79.90
2019-03-19T09:29:28.073Z,70.33
2019-03-19T09:31:56.154Z,70.63
2019-03-19T09:34:24.197Z,74.17
2019-03-19T09:36:57.183Z,72.80
2019-03-19T09:39:21.864Z,70.60
2019-03-19T09:41:49.872Z,68.97
2019-03-19T09:44:17.838Z,69.60
2019-03-19T09:46:45.892Z,70.40
2019-03-19T09:49:13.961Z,68.47
2019-03-19T09:51:41.937Z,69.90
2019-03-19T09:54:10.023Z,70.20
2019-03-19T09:56:38.071Z,68.00
2019-03-19T09:59:06.063Z,68.67
2019-03-19T10:01:34.121Z,70.40
2019-03-19T10:04:02.275Z,70.20
2019-03-19T10:06:30.258Z,71.40
2019-03-19T10:08:58.267Z,73.50
2019-03-19T10:11:26.303Z,69.70
2019-03-19T10:13:54.387Z,67.57
2019-03-19T10:16:22.425Z,71.47
2019-03-19T10:18:50.381Z,70.57
2019-03-19T10:21:18.310Z,72.53
2019-03-19T10:23:46.354Z,68.87
2019-03-19T10:26:14.361Z,71.83
2019-03-19T10:28:42.381Z,70.03
2019-03-19T10:31:10.362Z,68.47
2019-03-19T10:33:38.321Z,70.07
2019-03-19T10:36:06.274Z,69.07
2019-03-19T10:38:34.269Z,69.07
2019-03-19T10:41:02.328Z,68.70
2019-03-19T10:43:30.302Z,70.20
2019-03-19T10:45:58.366Z,68.60
2019-03-19T10:48:26.570Z,69.40
2019-03-19T10:50:54.622Z,69.63
2019-03-19T10:53:23.617Z,71.50
2019-03-19T10:55:52.977Z,70.50
2019-03-19T10:58:20.889Z,70.37
2019-03-19T11:00:48.965Z,69.30
2019-03-19T11:03:17.028Z,68.20
2019-03-19T11:05:45.130Z,68.70
2019-03-19T11:08:13.170Z,68.40
2019-03-19T11:10:41.369Z,71.63
2019-03-19T11:13:09.398Z,69.27
2019-03-19T11:15:37.401Z,72.87
2019-03-19T11:18:05.535Z,71.17
2019-03-19T11:20:33.541Z,68.17
2019-03-19T11:23:01.650Z,67.77
2019-03-19T11:25:29.689Z,69.90
2019-03-19T11:27:57.755Z,74.03
2019-03-19T11:30:25.720Z,71.10
2019-03-19T11:32:53.773Z,68.10
2019-03-19T11:35:21.930Z,70.80
2019-03-19T11:37:50.002Z,68.47
2019-03-19T11:40:18.171Z,69.70
2019-03-19T11:42:46.149Z,70.57
2019-03-19T11:45:14.460Z,70.03
2019-03-19T11:47:42.716Z,72.23
2019-03-19T11:50:12.345Z,69.53
2019-03-19T11:52:40.310Z,68.70
2019-03-19T11:55:08.320Z,68.17
2019-03-19T11:57:36.239Z,69.17
2019-03-19T12:00:11.212Z,70.33
2019-03-19T12:02:35.503Z,68.27
2019-03-19T12:05:03.515Z,69.37
2019-03-19T12:07:31.500Z,70.30
2019-03-19T12:09:59.595Z,68.17
2019-03-19T12:12:27.640Z,67.97
2019-03-19T12:14:55.584Z,69.67
2019-03-19T12:17:23.564Z,69.40
2019-03-19T12:19:51.948Z,69.03
2019-03-19T12:22:19.965Z,72.43
2019-03-19T12:24:48.355Z,68.27
2019-03-19T12:27:17.036Z,69.33
2019-03-19T12:29:45.565Z,69.40
2019-03-19T12:32:14.368Z,67.73
2019-03-19T12:34:42.319Z,68.80
2019-03-19T12:37:10.336Z,70.37
2019-03-19T12:39:38.277Z,71.40
2019-03-19T12:42:06.249Z,71.03
2019-03-19T12:44:34.206Z,69.37
2019-03-19T12:47:02.516Z,67.57
2019-03-19T12:49:30.730Z,77.10
2019-03-19T12:51:58.734Z,70.53
2019-03-19T12:54:26.799Z,71.37
2019-03-19T12:56:54.985Z,75.90
2019-03-19T12:59:23.174Z,71.13
2019-03-19T13:01:51.993Z,71.37
2019-03-19T13:04:19.987Z,70.70
2019-03-19T13:06:47.966Z,72.70
2019-03-19T13:09:16.055Z,70.80
2019-03-19T13:11:44.704Z,71.80
2019-03-19T13:14:12.724Z,74.97
2019-03-19T13:16:42.828Z,71.67
2019-03-19T13:19:10.472Z,71.10
2019-03-19T13:21:38.750Z,69.33
2019-03-19T13:24:06.714Z,71.67
2019-03-19T13:26:34.708Z,72.43
2019-03-19T13:29:02.673Z,70.03
2019-03-19T13:31:30.745Z,74.43
2019-03-19T13:33:58.701Z,71.67
2019-03-19T13:36:26.689Z,70.50
2019-03-19T13:38:54.774Z,72.20
2019-03-19T13:41:22.814Z,71.67
2019-03-19T13:43:50.892Z,72.03
2019-03-19T13:46:18.856Z,70.30
2019-03-19T13:48:46.860Z,71.90
2019-03-19T13:51:14.904Z,73.00
2019-03-19T13:53:42.863Z,77.77
2019-03-19T13:56:10.926Z,69.27
2019-03-19T13:58:38.953Z,70.60
2019-03-19T14:01:06.997Z,72.43
2019-03-19T14:03:35.029Z,72.13
2019-03-19T14:06:03.078Z,70.30
2019-03-19T14:08:31.084Z,70.63
2019-03-19T14:10:59.164Z,74.90
2019-03-19T14:13:27.235Z,78.27
2019-03-19T14:15:55.297Z,69.67
2019-03-19T14:18:23.287Z,71.40
2019-03-19T14:20:51.743Z,71.43
2019-03-19T14:23:19.771Z,70.53
2019-03-19T14:25:47.771Z,71.60
2019-03-19T14:28:15.796Z,69.30
2019-03-19T14:30:43.732Z,70.37
2019-03-19T14:33:11.803Z,71.53
2019-03-19T14:35:39.871Z,70.67
2019-03-19T14:38:07.965Z,71.00
2019-03-19T14:40:35.940Z,70.13
2019-03-19T14:43:04.299Z,72.93
2019-03-19T14:45:32.377Z,70.37
2019-03-19T14:48:00.432Z,70.10
2019-03-19T14:50:28.424Z,70.07
2019-03-19T14:52:56.490Z,70.13
2019-03-19T14:55:24.637Z,74.20
2019-03-19T14:57:52.633Z,69.30
2019-03-19T15:00:20.761Z,71.90
2019-03-19T15:02:48.793Z,72.17
2019-03-19T15:05:16.815Z,69.47
2019-03-19T15:07:44.776Z,68.67
2019-03-19T15:10:13.642Z,69.70
2019-03-19T15:12:41.666Z,70.43
2019-03-19T15:15:10.142Z,69.67
2019-03-19T15:17:38.328Z,68.70
2019-03-19T15:20:07.237Z,68.17
2019-03-19T15:22:35.341Z,69.87
2019-03-19T15:25:03.334Z,70.00
2019-03-19T15:27:32.332Z,70.70
2019-03-19T15:30:00.621Z,71.00
2019-03-19T15:32:28.855Z,69.87
2019-03-19T15:34:56.853Z,70.97
2019-03-19T15:37:24.839Z,82.37
2019-03-19T15:39:52.900Z,75.60
2019-03-19T15:42:21.241Z,70.97
2019-03-19T15:44:49.241Z,69.77
2019-03-19T15:47:17.901Z,70.70
2019-03-19T15:49:45.894Z,69.83
2019-03-19T15:52:13.870Z,70.03
2019-03-19T15:54:42.990Z,70.27
2019-03-19T15:57:11.066Z,69.20
2019-03-19T15:59:40.471Z,69.67
2019-03-19T16:02:08.517Z,71.07
2019-03-19T16:04:36.488Z,70.50
2019-03-19T16:07:04.451Z,71.20
2019-03-19T16:09:32.424Z,73.03
2019-03-19T16:12:00.943Z,77.93
2019-03-19T16:14:28.989Z,88.57
2019-03-19T16:16:57.098Z,77.63
2019-03-19T16:19:25.174Z,81.13
2019-03-19T16:21:53.225Z,74.50
2019-03-19T16:24:21.305Z,71.47
2019-03-19T16:26:49.538Z,72.97
2019-03-19T16:29:17.538Z,71.40
2019-03-19T16:31:50.808Z,76.07
2019-03-19T16:34:15.295Z,71.47
2019-03-19T16:36:43.258Z,73.10
2019-03-19T16:39:12.015Z,73.03
2019-03-19T16:41:40.001Z,72.40
2019-03-19T16:44:07.981Z,75.93
2019-03-19T16:46:35.956Z,74.07
2019-03-19T16:49:04.133Z,72.80
2019-03-19T16:51:32.220Z,73.30
2019-03-19T16:54:00.432Z,72.10
2019-03-19T16:56:28.432Z,69.47
2019-03-19T16:58:56.503Z,77.47
2019-03-19T17:01:24.802Z,76.60
2019-03-19T17:03:52.842Z,74.40
2019-03-19T17:06:20.809Z,72.10
2019-03-19T17:08:48.890Z,71.30
2019-03-19T17:11:16.863Z,75.10
2019-03-19T17:13:44.848Z,75.70
2019-03-19T17:16:12.893Z,71.67
2019-03-19T17:18:40.974Z,70.57
2019-03-19T17:21:09.044Z,73.80
2019-03-19T17:23:37.076Z,71.57
2019-03-19T17:26:05.131Z,70.33
2019-03-19T17:28:33.802Z,72.27
2019-03-19T17:31:01.772Z,72.40
2019-03-19T17:33:29.822Z,73.10
2019-03-19T17:35:57.896Z,72.57
2019-03-19T17:38:25.975Z,71.07
2019-03-19T17:40:54.049Z,73.47
2019-03-19T17:43:22.120Z,72.73
2019-03-19T17:45:50.055Z,75.00
2019-03-19T17:48:18.057Z,73.40
2019-03-19T17:50:46.537Z,73.87
2019-03-19T17:53:14.584Z,73.97
2019-03-19T17:55:42.579Z,73.60
2019-03-19T17:58:10.799Z,76.97
2019-03-19T18:00:40.560Z,74.27
2019-03-19T18:03:08.609Z,72.27
2019-03-19T18:05:36.592Z,79.07
2019-03-19T18:08:04.675Z,87.60
2019-03-19T18:10:32.761Z,82.93
2019-03-19T18:13:00.706Z,81.77
2019-03-19T18:15:28.796Z,73.07
2019-03-19T18:17:57.153Z,75.40
2019-03-19T18:20:25.235Z,73.10
2019-03-19T18:22:53.525Z,72.47
2019-03-19T18:25:21.621Z,75.50
2019-03-19T18:27:49.839Z,75.97
2019-03-19T18:30:18.844Z,71.77
2019-03-19T18:32:47.133Z,72.67
2019-03-19T18:35:15.319Z,73.70
2019-03-19T18:37:43.380Z,76.20
2019-03-19T18:40:11.470Z,77.70
2019-03-19T18:42:39.586Z,75.67
2019-03-19T18:45:07.628Z,74.97
2019-03-19T18:47:35.654Z,76.50
2019-03-19T18:50:04.752Z,72.57
2019-03-19T18:52:33.753Z,73.43
2019-03-19T18:55:01.813Z,79.77
2019-03-19T18:57:29.937Z,75.30
2019-03-19T18:59:57.939Z,75.50
2019-03-19T19:02:26.288Z,81.13
2019-03-19T19:04:54.395Z,76.00
2019-03-19T19:07:22.416Z,80.97
2019-03-19T19:09:50.445Z,81.07
2019-03-19T19:12:18.505Z,76.47
2019-03-19T19:14:46.496Z,74.17
2019-03-19T19:17:14.478Z,74.80
2019-03-19T19:19:42.644Z,76.03
2019-03-19T19:22:10.720Z,72.67
2019-03-19T19:24:38.854Z,73.70
2019-03-19T19:27:07.505Z,75.10
2019-03-19T19:29:35.489Z,76.97
2019-03-19T19:32:05.963Z,75.40
2019-03-19T19:34:34.039Z,74.50
2019-03-19T19:37:02.112Z,71.40
2019-03-19T19:39:30.173Z,77.40
2019-03-19T19:41:58.342Z,74.80
2019-03-19T19:44:26.307Z,75.97
2019-03-19T19:46:54.293Z,75.63
2019-03-19T19:49:22.385Z,74.37
2019-03-19T19:51:50.844Z,75.57
2019-03-19T19:54:18.814Z,76.77
2019-03-19T19:56:46.888Z,76.00
2019-03-19T19:59:14.865Z,75.13
2019-03-19T20:01:42.939Z,77.03
2019-03-19T20:04:10.996Z,75.90
2019-03-19T20:06:39.080Z,77.50
2019-03-19T20:09:07.864Z,78.90
2019-03-19T20:11:35.894Z,81.20
2019-03-19T20:14:03.894Z,75.70
2019-03-19T20:16:31.970Z,72.83
2019-03-19T20:19:00.031Z,76.93
2019-03-19T20:21:28.035Z,74.40
2019-03-19T20:23:56.138Z,70.97
2019-03-19T20:26:24.193Z,73.67
2019-03-19T20:28:52.255Z,70.70
2019-03-19T20:31:20.324Z,70.47
2019-03-19T20:33:48.464Z,69.77
2019-03-19T20:36:18.562Z,70.40
2019-03-19T20:38:46.572Z,72.27
2019-03-19T20:41:14.619Z,76.33
2019-03-19T20:43:42.734Z,74.67
2019-03-19T20:46:10.751Z,77.70
2019-03-19T20:48:38.734Z,128.83
2019-03-19T20:51:06.821Z,96.23
2019-03-19T20:53:34.914Z,97.67
2019-03-19T20:56:04.261Z,102.73
2019-03-19T20:58:42.852Z,78.00
2019-03-19T21:01:01.937Z,74.70
2019-03-19T21:03:35.967Z,78.57
2019-03-19T21:06:00.951Z,78.17
2019-03-19T21:08:28.954Z,74.97
2019-03-19T21:10:56.977Z,73.27
2019-03-19T21:13:25.381Z,73.30
2019-03-19T21:15:53.470Z,76.37
2019-03-19T21:18:21.824Z,76.73
2019-03-19T21:20:50.109Z,73.13
2019-03-19T21:23:18.165Z,74.93
2019-03-19T21:25:46.183Z,76.00
2019-03-19T21:28:14.706Z,73.93
2019-03-19T21:30:42.800Z,74.50
2019-03-19T21:33:10.816Z,73.50
2019-03-19T21:35:38.877Z,71.30
2019-03-19T21:38:06.835Z,70.97
2019-03-19T21:40:34.894Z,73.43
2019-03-19T21:43:03.106Z,73.63
2019-03-19T21:45:31.130Z,72.80
2019-03-19T21:47:59.283Z,77.17
2019-03-19T21:50:29.310Z,72.93
2019-03-19T21:52:57.319Z,79.23
2019-03-19T21:55:25.406Z,73.27
2019-03-19T21:57:54.498Z,75.77
2019-03-19T22:00:22.545Z,76.90
2019-03-19T22:02:50.617Z,75.43
2019-03-19T22:05:18.699Z,77.27
2019-03-19T22:07:47.148Z,75.10
2019-03-19T22:10:15.228Z,74.03
2019-03-19T22:12:43.345Z,71.83
2019-03-19T22:15:13.932Z,77.10
2019-03-19T22:17:43.538Z,72.67
2019-03-19T22:20:11.747Z,77.23
2019-03-19T22:22:39.687Z,76.97
2019-03-19T22:25:08.396Z,78.43
2019-03-19T22:27:36.604Z,79.10
2019-03-19T22:30:05.190Z,77.23
2019-03-19T22:32:33.218Z,78.30
2019-03-19T22:35:01.368Z,74.00
2019-03-19T22:37:29.451Z,76.30
2019-03-19T22:39:57.537Z,75.40
2019-03-19T22:42:25.628Z,77.90
2019-03-19T22:44:53.567Z,72.90
2019-03-19T22:47:21.641Z,77.77
2019-03-19T22:49:49.696Z,74.97
2019-03-19T22:52:17.834Z,79.10
2019-03-19T22:54:45.838Z,81.30
2019-03-19T22:57:13.810Z,72.90
2019-03-19T22:59:41.917Z,71.80
2019-03-19T23:02:09.979Z,74.50
2019-03-19T23:04:37.898Z,71.30
2019-03-19T23:07:06.412Z,72.40
2019-03-19T23:09:34.390Z,75.50
2019-03-19T23:12:02.438Z,71.17
2019-03-19T23:14:30.563Z,74.20
2019-03-19T23:16:58.626Z,155.60
2019-03-19T23:19:26.642Z,165.67
2019-03-19T23:21:54.629Z,88.30
2019-03-19T23:24:22.676Z,92.27
2019-03-19T23:26:50.877Z,77.77
2019-03-19T23:29:18.944Z,76.30
2019-03-19T23:31:48.968Z,73.70
2019-03-19T23:34:16.999Z,74.00
2019-03-19T23:36:45.002Z,73.50
2019-03-19T23:39:13.123Z,77.43
2019-03-19T23:41:41.026Z,80.07
2019-03-19T23:44:09.014Z,69.77
2019-03-19T23:46:37.376Z,73.40
2019-03-19T23:49:05.463Z,73.47
2019-03-19T23:51:33.488Z,69.43
2019-03-19T23:54:01.598Z,69.60
2019-03-19T23:56:30.225Z,70.40
2019-03-19T23:58:58.281Z,69.20
